createdAt,value
2023-01-13T00:02:05.710Z,14.05
2023-01-13T00:04:32.131Z,20.63
2023-01-13T00:06:58.504Z,20.40
2023-01-13T00:09:24.816Z,18.95
2023-01-13T00:11:51.149Z,19.60
2023-01-13T00:14:18.075Z,15.43
2023-01-13T00:16:44.403Z,17.73
2023-01-13T00:19:10.783Z,20.02
2023-01-13T00:21:37.271Z,14.85
2023-01-13T00:24:03.678Z,17.05
2023-01-13T00:26:36.098Z,17.63
2023-01-13T00:29:02.560Z,15.25
2023-01-13T00:31:30.161Z,18.02
2023-01-13T00:33:57.976Z,17.35
2023-01-13T00:36:24.865Z,18.92
2023-01-13T00:38:51.205Z,16.63
2023-01-13T00:41:21.778Z,18.00
2023-01-13T00:43:48.547Z,14.00
2023-01-13T00:46:16.365Z,17.65
2023-01-13T00:48:42.759Z,21.65
2023-01-13T00:51:11.604Z,21.20
2023-01-13T00:53:39.310Z,19.85
2023-01-13T00:56:07.054Z,16.60
2023-01-13T00:58:34.316Z,16.92
2023-01-13T01:01:05.279Z,19.38
2023-01-13T01:03:31.969Z,18.17
2023-01-13T01:08:25.774Z,15.25
2023-01-13T01:11:00.043Z,15.30
2023-01-13T01:13:26.405Z,22.25
2023-01-13T01:15:52.749Z,16.15
2023-01-13T01:18:19.078Z,15.38
2023-01-13T01:20:45.362Z,18.10
2023-01-13T01:23:11.698Z,14.32
2023-01-13T01:25:38.057Z,14.23
2023-01-13T01:28:04.396Z,16.45
2023-01-13T01:30:30.793Z,16.77
2023-01-13T01:33:00.070Z,14.75
2023-01-13T01:35:26.504Z,19.52
2023-01-13T01:37:52.850Z,23.35
2023-01-13T01:40:19.283Z,18.13
2023-01-13T01:43:04.385Z,13.48
2023-01-13T01:45:31.210Z,20.08
2023-01-13T01:48:00.037Z,19.13
2023-01-13T01:50:27.569Z,14.40
2023-01-13T01:52:55.943Z,18.48
2023-01-13T01:55:23.954Z,15.35
2023-01-13T01:58:07.386Z,17.92
2023-01-13T02:00:33.753Z,14.00
2023-01-13T02:03:00.519Z,15.13
2023-01-13T02:07:54.630Z,12.95
2023-01-13T02:10:23.291Z,15.90
2023-01-13T02:12:50.656Z,19.77
2023-01-13T02:15:22.565Z,15.02
2023-01-13T02:18:04.200Z,23.40
2023-01-13T02:20:38.364Z,13.15
2023-01-13T02:23:33.632Z,22.38
2023-01-13T02:26:07.596Z,18.90
2023-01-13T02:28:36.763Z,18.08
2023-01-13T02:31:33.591Z,19.20
2023-01-13T02:34:17.139Z,22.80
2023-01-13T02:37:00.199Z,17.23
2023-01-13T02:39:28.889Z,21.70
2023-01-13T02:42:23.564Z,23.02
2023-01-13T02:45:01.769Z,15.00
2023-01-13T02:47:29.911Z,18.23
2023-01-13T02:49:59.881Z,19.00
2023-01-13T02:52:29.585Z,16.52
2023-01-13T02:54:58.830Z,20.35
2023-01-13T02:57:26.514Z,19.00
2023-01-13T02:59:55.055Z,19.63
2023-01-13T03:02:22.145Z,19.13
2023-01-13T03:04:51.533Z,20.30
2023-01-13T03:07:32.132Z,21.30
2023-01-13T03:10:19.927Z,17.90
2023-01-13T03:12:46.210Z,19.98
2023-01-13T03:15:15.634Z,16.63
2023-01-13T03:17:44.185Z,12.60
2023-01-13T03:20:17.069Z,17.58
2023-01-13T03:22:47.663Z,14.60
2023-01-13T03:25:17.614Z,16.52
2023-01-13T03:27:48.140Z,20.20
2023-01-13T03:30:19.634Z,16.10
2023-01-13T03:32:50.071Z,18.75
2023-01-13T03:35:18.968Z,21.02
2023-01-13T03:37:49.728Z,23.70
2023-01-13T03:40:19.801Z,18.50
2023-01-13T03:43:08.768Z,20.73
2023-01-13T03:45:36.211Z,15.43
2023-01-13T03:48:05.750Z,22.52
2023-01-13T03:50:51.888Z,20.48
2023-01-13T03:53:24.267Z,21.35
2023-01-13T03:55:53.317Z,15.18
2023-01-13T03:58:25.081Z,19.40
2023-01-13T04:00:56.075Z,16.20
2023-01-13T04:03:34.228Z,14.13
2023-01-13T04:06:23.591Z,14.93
2023-01-13T04:08:59.667Z,18.30
2023-01-13T04:11:41.563Z,15.93
2023-01-13T04:14:08.817Z,14.30
2023-01-13T04:16:37.852Z,13.95
2023-01-13T04:19:04.330Z,14.40
2023-01-13T04:21:30.732Z,15.65
2023-01-13T04:23:57.117Z,16.80
2023-01-13T04:26:24.280Z,17.02
2023-01-13T04:28:51.832Z,13.82
2023-01-13T04:31:18.394Z,14.50
2023-01-13T04:33:44.807Z,10.60
2023-01-13T04:36:11.198Z,14.07
2023-01-13T04:38:37.565Z,11.40
2023-01-13T04:41:03.928Z,14.38
2023-01-13T04:43:30.361Z,14.55
2023-01-13T04:45:57.035Z,13.50
2023-01-13T04:50:50.143Z,6.68
2023-01-13T04:53:16.532Z,10.30
2023-01-13T04:55:44.455Z,11.02
2023-01-13T04:58:11.525Z,14.57
2023-01-13T05:00:38.403Z,9.80
2023-01-13T05:03:04.868Z,9.27
2023-01-13T05:05:31.474Z,9.68
2023-01-13T05:07:58.010Z,8.52
2023-01-13T05:10:24.499Z,11.45
2023-01-13T05:13:09.623Z,10.38
2023-01-13T05:15:54.504Z,9.02
2023-01-13T05:18:20.949Z,6.45
2023-01-13T05:20:47.700Z,5.82
2023-01-13T05:25:59.127Z,7.60
2023-01-13T05:28:25.467Z,6.15
2023-01-13T05:30:52.587Z,7.72
2023-01-13T05:33:20.583Z,9.88
2023-01-13T05:35:47.444Z,11.10
2023-01-13T05:38:14.033Z,7.95
2023-01-13T05:41:02.184Z,10.32
2023-01-13T05:43:29.011Z,12.70
2023-01-13T05:46:03.041Z,11.20
2023-01-13T05:48:36.957Z,8.20
2023-01-13T05:51:04.312Z,9.88
2023-01-13T05:53:31.043Z,8.65
2023-01-13T05:58:24.576Z,9.13
2023-01-13T06:00:51.343Z,12.02
2023-01-13T06:05:47.021Z,13.85
2023-01-13T06:08:13.523Z,13.90
2023-01-13T06:10:39.939Z,9.13
2023-01-13T06:13:06.641Z,9.80
2023-01-13T06:15:33.056Z,13.05
2023-01-13T06:18:01.950Z,8.80
2023-01-13T06:20:28.335Z,15.40
2023-01-13T06:22:54.786Z,13.18
2023-01-13T06:25:36.436Z,10.15
2023-01-13T06:28:03.060Z,7.97
2023-01-13T06:30:31.009Z,9.15
2023-01-13T06:32:58.910Z,11.38
2023-01-13T06:35:29.619Z,11.73
2023-01-13T06:37:57.897Z,12.73
2023-01-13T06:40:24.636Z,12.45
2023-01-13T06:45:36.025Z,12.43
2023-01-13T06:48:02.425Z,10.25
2023-01-13T06:50:29.035Z,11.85
2023-01-13T06:52:55.434Z,10.32
2023-01-13T06:55:21.826Z,11.93
2023-01-13T06:57:55.644Z,13.80
2023-01-13T07:00:22.668Z,12.35
2023-01-13T07:02:49.269Z,12.63
2023-01-13T07:05:15.924Z,12.93
2023-01-13T07:07:42.356Z,9.27
2023-01-13T07:10:09.838Z,13.32
2023-01-13T07:12:57.507Z,13.48
2023-01-13T07:15:24.021Z,11.23
2023-01-13T07:17:50.453Z,13.38
2023-01-13T07:20:17.388Z,11.35
2023-01-13T07:22:44.033Z,11.93
2023-01-13T07:27:37.083Z,12.57
2023-01-13T07:32:31.196Z,12.88
2023-01-13T07:34:58.647Z,13.20
2023-01-13T07:37:25.065Z,13.73
2023-01-13T07:39:51.498Z,12.32
2023-01-13T07:42:36.621Z,14.82
2023-01-13T07:45:03.175Z,15.00
2023-01-13T07:47:29.630Z,12.77
2023-01-13T07:49:56.054Z,14.52
2023-01-13T07:52:22.428Z,15.07
2023-01-13T07:54:49.705Z,12.68
2023-01-13T07:57:16.076Z,15.25
2023-01-13T07:59:42.749Z,12.23
2023-01-13T08:02:11.438Z,16.17
2023-01-13T08:04:38.018Z,14.85
2023-01-13T08:07:04.641Z,14.15
2023-01-13T08:09:31.093Z,17.67
2023-01-13T08:12:15.858Z,14.65
2023-01-13T08:14:44.607Z,20.30
2023-01-13T08:17:10.968Z,11.00
2023-01-13T08:19:37.378Z,14.00
2023-01-13T08:22:03.773Z,15.27
2023-01-13T08:24:30.181Z,17.55
2023-01-13T08:26:56.627Z,15.88
2023-01-13T08:29:23.056Z,14.65
2023-01-13T08:31:49.519Z,13.50
2023-01-13T08:34:15.896Z,16.05
2023-01-13T08:36:42.335Z,13.40
2023-01-13T08:39:08.658Z,18.83
2023-01-13T08:41:53.621Z,12.30
2023-01-13T08:44:19.968Z,13.40
2023-01-13T08:46:46.606Z,13.45
2023-01-13T08:49:12.936Z,10.90
2023-01-13T08:51:39.258Z,12.35
2023-01-13T08:54:05.613Z,18.08
2023-01-13T08:56:35.336Z,15.32
2023-01-13T08:59:01.972Z,19.02
2023-01-13T09:01:28.413Z,12.57
2023-01-13T09:03:54.985Z,13.20
2023-01-13T09:06:21.453Z,13.40
2023-01-13T09:08:47.948Z,12.30
2023-01-13T09:11:49.321Z,14.07
2023-01-13T09:14:22.794Z,13.80
2023-01-13T09:16:49.244Z,12.05
2023-01-13T09:19:15.550Z,15.13
2023-01-13T09:21:41.931Z,15.13
2023-01-13T09:24:08.299Z,12.88
2023-01-13T09:26:34.633Z,13.10
2023-01-13T09:29:00.991Z,20.15
2023-01-13T09:31:27.785Z,14.27
2023-01-13T09:36:39.499Z,14.07
2023-01-13T09:39:06.197Z,12.45
2023-01-13T09:41:53.159Z,10.65
2023-01-13T09:44:25.769Z,18.10
2023-01-13T09:46:56.307Z,16.65
2023-01-13T09:49:24.835Z,18.13
2023-01-13T09:51:56.953Z,12.10
2023-01-13T09:55:02.082Z,14.20
2023-01-13T09:57:29.749Z,13.20
2023-01-13T09:59:57.740Z,16.73
2023-01-13T10:02:42.530Z,12.70
2023-01-13T10:05:15.287Z,12.98
2023-01-13T10:07:49.518Z,11.50
2023-01-13T10:10:19.882Z,12.82
2023-01-13T10:13:05.915Z,15.10
2023-01-13T10:15:32.350Z,17.38
2023-01-13T10:18:05.813Z,12.63
2023-01-13T10:20:37.671Z,17.20
2023-01-13T10:23:16.441Z,14.88
2023-01-13T10:26:01.433Z,14.25
2023-01-13T10:28:27.924Z,16.83
2023-01-13T10:30:54.452Z,11.93
2023-01-13T10:33:30.048Z,14.70
2023-01-13T10:36:04.107Z,16.00
2023-01-13T10:38:30.517Z,14.70
2023-01-13T10:40:58.313Z,15.43
2023-01-13T10:43:25.482Z,18.10
2023-01-13T10:45:55.287Z,10.85
2023-01-13T10:48:21.685Z,14.63
2023-01-13T10:50:48.602Z,11.43
2023-01-13T10:53:19.471Z,11.32
2023-01-13T10:55:58.671Z,15.32
2023-01-13T10:58:25.396Z,12.07
2023-01-13T11:00:59.090Z,12.48
2023-01-13T11:03:26.124Z,15.02
2023-01-13T11:05:56.513Z,12.90
2023-01-13T11:08:24.672Z,19.67
2023-01-13T11:10:55.450Z,10.80
2023-01-13T11:14:02.578Z,10.10
2023-01-13T11:16:29.007Z,12.65
2023-01-13T11:19:02.586Z,9.75
2023-01-13T11:21:34.606Z,17.50
2023-01-13T11:24:21.219Z,11.15
2023-01-13T11:26:51.360Z,12.82
2023-01-13T11:29:23.133Z,11.57
2023-01-13T11:31:50.972Z,12.63
2023-01-13T11:34:32.545Z,10.88
2023-01-13T11:37:00.418Z,9.57
2023-01-13T11:39:44.091Z,8.48
2023-01-13T11:42:22.496Z,15.23
2023-01-13T11:44:58.441Z,7.75
2023-01-13T11:47:25.901Z,13.20
2023-01-13T11:49:52.446Z,11.35
2023-01-13T11:52:23.900Z,10.00
2023-01-13T11:55:08.826Z,14.40
2023-01-13T11:57:35.209Z,10.93
2023-01-13T12:00:17.094Z,11.20
2023-01-13T12:03:04.551Z,10.90
2023-01-13T12:05:39.369Z,8.82
2023-01-13T12:08:14.893Z,9.60
2023-01-13T12:10:44.970Z,9.93
2023-01-13T12:13:11.409Z,11.45
2023-01-13T12:15:46.660Z,11.85
2023-01-13T12:18:31.892Z,12.00
2023-01-13T12:21:04.458Z,10.95
2023-01-13T12:23:33.812Z,13.77
2023-01-13T12:26:05.271Z,11.82
2023-01-13T12:28:37.996Z,11.27
2023-01-13T12:31:06.335Z,15.98
2023-01-13T12:33:55.346Z,17.63
2023-01-13T12:36:27.239Z,16.92
2023-01-13T12:39:18.158Z,22.35
2023-01-13T12:42:06.512Z,14.65
2023-01-13T12:44:32.909Z,16.40
2023-01-13T12:46:59.935Z,16.52
2023-01-13T12:49:30.699Z,17.90
2023-01-13T12:51:57.050Z,18.67
2023-01-13T12:54:44.860Z,15.00
2023-01-13T12:57:20.440Z,13.02
2023-01-13T12:59:59.036Z,11.23
2023-01-13T13:02:30.071Z,16.35
2023-01-13T13:04:57.333Z,11.57
2023-01-13T13:07:33.760Z,18.58
2023-01-13T13:13:00.654Z,12.73
2023-01-13T13:15:28.177Z,14.48
2023-01-13T13:18:00.368Z,11.35
2023-01-13T13:20:45.449Z,15.75
2023-01-13T13:23:30.680Z,11.98
2023-01-13T13:26:20.500Z,15.73
2023-01-13T13:29:02.005Z,15.02
2023-01-13T13:31:37.539Z,11.70
2023-01-13T13:34:16.932Z,10.45
2023-01-13T13:36:58.363Z,13.00
2023-01-13T13:39:45.376Z,11.95
2023-01-13T13:42:32.238Z,11.05
2023-01-13T13:45:19.040Z,17.20
2023-01-13T13:47:45.390Z,10.00
2023-01-13T13:50:16.077Z,10.13
2023-01-13T13:52:54.028Z,9.35
2023-01-13T13:55:27.536Z,9.02
2023-01-13T13:57:54.704Z,12.40
2023-01-13T14:00:23.023Z,11.93
2023-01-13T14:03:09.597Z,4.88
2023-01-13T14:05:36.550Z,10.85
2023-01-13T14:08:10.034Z,13.65
2023-01-13T14:10:37.683Z,11.95
2023-01-13T14:13:21.571Z,7.95
2023-01-13T14:16:05.498Z,13.52
2023-01-13T14:18:32.772Z,11.98
2023-01-13T14:21:17.445Z,11.45
2023-01-13T14:23:50.683Z,10.80
2023-01-13T14:26:17.323Z,9.48
2023-01-13T14:31:10.531Z,12.05
2023-01-13T14:33:39.078Z,11.05
2023-01-13T14:36:06.934Z,11.93
2023-01-13T14:38:33.382Z,8.70
2023-01-13T14:41:09.356Z,12.85
2023-01-13T14:43:42.079Z,10.10
2023-01-13T14:46:08.509Z,11.93
2023-01-13T14:48:39.379Z,9.32
2023-01-13T14:51:09.416Z,10.52
2023-01-13T14:53:36.328Z,12.57
2023-01-13T14:56:21.594Z,10.43
2023-01-13T14:58:49.683Z,12.27
2023-01-13T15:01:26.651Z,8.73
2023-01-13T15:03:53.100Z,5.78
2023-01-13T15:06:24.518Z,11.68
2023-01-13T15:08:51.677Z,8.82
2023-01-13T15:11:26.607Z,10.43
2023-01-13T15:13:56.983Z,9.80
2023-01-13T15:16:25.341Z,8.43
2023-01-13T15:18:51.909Z,6.22
2023-01-13T15:21:18.381Z,13.82
2023-01-13T15:23:47.243Z,8.98
2023-01-13T15:26:16.457Z,9.55
2023-01-13T15:28:43.143Z,7.57
2023-01-13T15:33:35.840Z,7.05
2023-01-13T15:36:02.492Z,12.43
2023-01-13T15:40:55.185Z,10.98
2023-01-13T15:43:40.979Z,9.50
2023-01-13T15:46:37.759Z,9.13
2023-01-13T15:49:12.773Z,10.15
2023-01-13T15:51:40.107Z,9.25
2023-01-13T15:54:07.414Z,7.28
2023-01-13T15:56:36.103Z,9.32
2023-01-13T15:59:03.008Z,12.48
2023-01-13T16:01:29.473Z,9.65
2023-01-13T16:03:56.597Z,9.77
2023-01-13T16:06:32.901Z,11.07
2023-01-13T16:08:59.577Z,16.17
2023-01-13T16:11:25.927Z,11.65
2023-01-13T16:13:52.304Z,11.05
2023-01-13T16:16:20.548Z,8.77
2023-01-13T16:18:47.300Z,17.52
2023-01-13T16:23:40.414Z,11.32
2023-01-13T16:26:07.702Z,10.27
2023-01-13T16:28:35.798Z,11.52
2023-01-13T16:31:15.072Z,15.05
2023-01-13T16:33:41.449Z,11.63
2023-01-13T16:36:12.982Z,10.10
2023-01-13T16:38:39.326Z,9.15
2023-01-13T16:41:07.007Z,13.18
2023-01-13T16:43:33.948Z,12.05
2023-01-13T16:46:00.412Z,14.18
2023-01-13T16:48:26.809Z,12.18
2023-01-13T16:50:53.348Z,8.77
2023-01-13T16:53:22.224Z,11.55
2023-01-13T16:55:48.656Z,10.18
2023-01-13T16:58:19.034Z,10.40
2023-01-13T17:00:48.963Z,10.43
2023-01-13T17:03:16.087Z,9.32
2023-01-13T17:05:43.645Z,9.45
2023-01-13T17:08:17.271Z,10.05
2023-01-13T17:10:46.688Z,11.32
2023-01-13T17:13:16.799Z,10.65
2023-01-13T17:15:44.195Z,9.25
2023-01-13T17:18:11.493Z,7.60
2023-01-13T17:20:37.809Z,8.02
2023-01-13T17:23:04.126Z,9.68
2023-01-13T17:25:30.678Z,8.88
2023-01-13T17:27:59.797Z,8.45
2023-01-13T17:30:26.146Z,7.68
2023-01-13T17:32:52.601Z,10.20
2023-01-13T17:35:24.417Z,7.47
2023-01-13T17:37:51.789Z,6.65
2023-01-13T17:40:18.277Z,5.05
2023-01-13T17:42:44.632Z,6.20
2023-01-13T17:45:12.319Z,5.88
2023-01-13T17:47:38.700Z,8.07
2023-01-13T17:50:05.695Z,6.70
2023-01-13T17:52:33.576Z,7.57
2023-01-13T17:55:00.006Z,7.88
2023-01-13T17:57:26.382Z,9.07
2023-01-13T17:59:52.808Z,7.80
2023-01-13T18:02:19.276Z,6.78
2023-01-13T18:04:45.843Z,6.57
2023-01-13T18:07:12.214Z,6.43
2023-01-13T18:09:38.609Z,5.95
2023-01-13T18:12:05.048Z,6.70
2023-01-13T18:14:37.407Z,5.80
2023-01-13T18:17:04.003Z,6.57
2023-01-13T18:19:49.229Z,6.88
2023-01-13T18:22:34.140Z,8.10
2023-01-13T18:25:20.793Z,6.47
2023-01-13T18:27:48.161Z,7.75
2023-01-13T18:30:14.984Z,6.95
2023-01-13T18:32:42.034Z,6.72
2023-01-13T18:35:10.284Z,5.18
2023-01-13T18:37:41.879Z,5.43
2023-01-13T18:40:09.574Z,5.75
2023-01-13T18:42:51.553Z,10.02
2023-01-13T18:45:23.068Z,7.03
2023-01-13T18:47:49.731Z,10.02
2023-01-13T18:52:43.543Z,9.45
2023-01-13T18:55:10.253Z,13.10
2023-01-13T18:57:40.208Z,11.38
2023-01-13T19:00:10.373Z,13.18
2023-01-13T19:02:37.203Z,12.38
2023-01-13T19:05:03.676Z,12.80
2023-01-13T19:07:31.740Z,14.25
2023-01-13T19:10:01.085Z,11.68
2023-01-13T19:12:27.697Z,12.20
2023-01-13T19:14:54.881Z,11.52
2023-01-13T19:17:21.719Z,9.98
2023-01-13T19:19:50.799Z,10.10
2023-01-13T19:22:19.639Z,8.20
2023-01-13T19:24:46.082Z,8.45
2023-01-13T19:27:14.483Z,8.93
2023-01-13T19:29:43.250Z,10.95
2023-01-13T19:32:17.949Z,8.35
2023-01-13T19:34:44.679Z,12.23
2023-01-13T19:37:11.251Z,6.28
2023-01-13T19:39:37.808Z,8.18
2023-01-13T19:42:26.225Z,9.27
2023-01-13T19:45:10.989Z,9.65
2023-01-13T19:47:38.712Z,8.30
2023-01-13T19:50:07.908Z,8.25
2023-01-13T19:52:34.461Z,7.10
2023-01-13T19:55:00.865Z,10.20
2023-01-13T19:57:27.226Z,8.73
2023-01-13T19:59:53.617Z,9.02
2023-01-13T20:02:43.703Z,7.95
2023-01-13T20:05:10.323Z,9.40
2023-01-13T20:07:36.665Z,6.78
2023-01-13T20:10:03.090Z,6.25
2023-01-13T20:12:29.740Z,8.77
2023-01-13T20:14:56.386Z,7.30
2023-01-13T20:17:22.802Z,8.73
2023-01-13T20:19:49.179Z,8.38
2023-01-13T20:22:15.615Z,7.15
2023-01-13T20:24:42.107Z,4.75
2023-01-13T20:27:08.767Z,7.20
2023-01-13T20:29:35.428Z,6.70
2023-01-13T20:34:28.354Z,6.43
2023-01-13T20:36:54.751Z,7.18
2023-01-13T20:39:22.448Z,6.40
2023-01-13T20:42:07.320Z,6.20
2023-01-13T20:44:33.755Z,5.97
2023-01-13T20:47:00.128Z,4.80
2023-01-13T20:49:27.467Z,8.73
2023-01-13T20:51:54.010Z,9.18
2023-01-13T20:56:46.988Z,6.55
2023-01-13T20:59:13.503Z,4.28
2023-01-13T21:01:40.177Z,5.93
2023-01-13T21:04:07.295Z,5.53
2023-01-13T21:06:35.842Z,7.63
2023-01-13T21:09:04.564Z,6.72
2023-01-13T21:11:49.355Z,9.10
2023-01-13T21:14:35.549Z,10.63
2023-01-13T21:19:28.196Z,12.90
2023-01-13T21:21:54.593Z,13.50
2023-01-13T21:24:20.976Z,13.80
2023-01-13T21:26:50.970Z,15.45
2023-01-13T21:29:17.375Z,13.18
2023-01-13T21:31:43.869Z,10.40
2023-01-13T21:34:10.615Z,15.63
2023-01-13T21:39:03.278Z,15.85
2023-01-13T21:41:48.303Z,16.23
2023-01-13T21:44:35.023Z,12.20
2023-01-13T21:47:19.754Z,14.75
2023-01-13T21:49:46.084Z,15.25
2023-01-13T21:52:13.146Z,12.80
2023-01-13T21:54:59.583Z,12.60
2023-01-13T21:57:27.313Z,14.23
2023-01-13T21:59:53.887Z,12.50
2023-01-13T22:02:31.575Z,9.57
2023-01-13T22:05:01.843Z,10.77
2023-01-13T22:07:28.633Z,8.93
2023-01-13T22:12:23.931Z,11.70
2023-01-13T22:14:54.445Z,10.02
2023-01-13T22:17:21.863Z,11.45
2023-01-13T22:19:48.890Z,11.73
2023-01-13T22:22:15.980Z,8.98
2023-01-13T22:24:47.075Z,12.18
2023-01-13T22:27:14.318Z,10.60
2023-01-13T22:29:41.134Z,9.45
2023-01-13T22:32:07.428Z,10.95
2023-01-13T22:34:33.984Z,9.60
2023-01-13T22:37:00.542Z,7.53
2023-01-13T22:39:26.847Z,7.53
2023-01-13T22:41:53.203Z,10.40
2023-01-13T22:44:20.330Z,8.50
2023-01-13T22:46:46.780Z,11.07
2023-01-13T22:49:14.393Z,11.55
2023-01-13T22:51:41.176Z,8.85
2023-01-13T22:54:07.761Z,9.45
2023-01-13T22:56:34.480Z,7.07
2023-01-13T23:01:28.501Z,11.43
2023-01-13T23:03:55.004Z,11.05
2023-01-13T23:06:21.998Z,12.02
2023-01-13T23:08:48.895Z,7.55
2023-01-13T23:11:16.384Z,7.65
2023-01-13T23:13:43.190Z,7.50
2023-01-13T23:16:11.095Z,8.63
2023-01-13T23:18:37.447Z,8.18
2023-01-13T23:21:09.881Z,6.65
2023-01-13T23:23:36.562Z,10.18
2023-01-13T23:28:29.438Z,6.25
2023-01-13T23:30:55.934Z,10.63
2023-01-13T23:33:22.250Z,7.72
2023-01-13T23:35:55.598Z,6.72
2023-01-13T23:38:21.889Z,9.73
2023-01-13T23:40:48.286Z,9.80
2023-01-13T23:43:14.673Z,8.55
2023-01-13T23:45:41.038Z,11.38
2023-01-13T23:48:07.363Z,11.90
2023-01-13T23:50:33.739Z,9.85
2023-01-13T23:53:00.141Z,7.93
2023-01-13T23:55:26.942Z,12.68
